sensor_id;sensor_type;location;lat;lon;timestamp;pressure;altitude;pressure_sealevel;temperature;humidity
62617;BME280;62539;51.190;6.808;2022-08-04T00:01:08;101010.59;;;27.05;51.32
62617;BME280;62539;51.190;6.808;2022-08-04T00:03:52;101012.31;;;27.06;51.33
62617;BME280;62539;51.190;6.808;2022-08-04T00:10:07;100996.41;;;27.04;51.59
62617;BME280;62539;51.190;6.808;2022-08-04T00:12:36;100994.63;;;27.05;51.49
62617;BME280;62539;51.190;6.808;2022-08-04T00:15:10;100986.63;;;27.05;51.66
62617;BME280;62539;51.190;6.808;2022-08-04T00:17:39;100993.75;;;27.04;51.61
62617;BME280;62539;51.190;6.808;2022-08-04T00:20:18;100991.09;;;27.04;51.64
62617;BME280;62539;51.190;6.808;2022-08-04T00:22:46;100991.97;;;27.05;51.57
62617;BME280;62539;51.190;6.808;2022-08-04T00:25:13;100998.13;;;27.05;51.34
62617;BME280;62539;51.190;6.808;2022-08-04T00:27:39;100998.13;;;27.05;51.49
62617;BME280;62539;51.190;6.808;2022-08-04T00:30:06;100992.81;;;27.05;51.33
62617;BME280;62539;51.190;6.808;2022-08-04T00:32:32;100988.34;;;27.06;51.49
62617;BME280;62539;51.190;6.808;2022-08-04T00:34:59;100989.19;;;27.06;51.59
62617;BME280;62539;51.190;6.808;2022-08-04T00:37:25;100985.69;;;27.06;51.43
62617;BME280;62539;51.190;6.808;2022-08-04T00:39:55;100975.88;;;27.06;51.35
62617;BME280;62539;51.190;6.808;2022-08-04T00:42:41;100965.34;;;27.05;51.23
62617;BME280;62539;51.190;6.808;2022-08-04T00:54:33;100973.53;;;27.02;51.56
62617;BME280;62539;51.190;6.808;2022-08-04T01:00:11;100959.28;;;27.03;51.58
62617;BME280;62539;51.190;6.808;2022-08-04T01:12:10;100950.41;;;27.02;51.68
62617;BME280;62539;51.190;6.808;2022-08-04T01:14:49;100945.97;;;27.03;51.64
62617;BME280;62539;51.190;6.808;2022-08-04T01:20:06;100941.47;;;27.03;51.53
62617;BME280;62539;51.190;6.808;2022-08-04T01:25:42;100943.28;;;27.03;51.38
62617;BME280;62539;51.190;6.808;2022-08-04T01:31:58;100946.91;;;27.02;51.37
62617;BME280;62539;51.190;6.808;2022-08-04T01:34:34;100950.31;;;27.04;51.39
62617;BME280;62539;51.190;6.808;2022-08-04T01:40:04;100943.28;;;27.03;51.47
62617;BME280;62539;51.190;6.808;2022-08-04T01:42:32;100941.47;;;27.03;51.30
62617;BME280;62539;51.190;6.808;2022-08-04T01:45:02;100939.56;;;27.05;51.39
62617;BME280;62539;51.190;6.808;2022-08-04T01:47:33;100944.03;;;27.05;51.56
62617;BME280;62539;51.190;6.808;2022-08-04T01:50:20;100940.63;;;27.03;51.50
62617;BME280;62539;51.190;6.808;2022-08-04T01:52:47;100933.41;;;27.05;51.46
62617;BME280;62539;51.190;6.808;2022-08-04T01:55:16;100937.00;;;27.04;51.48
62617;BME280;62539;51.190;6.808;2022-08-04T01:57:44;100943.09;;;27.06;51.32
62617;BME280;62539;51.190;6.808;2022-08-04T02:00:13;100942.13;;;27.07;51.25
62617;BME280;62539;51.190;6.808;2022-08-04T02:02:51;100945.75;;;27.06;51.52
62617;BME280;62539;51.190;6.808;2022-08-04T02:05:20;100941.25;;;27.06;51.37
62617;BME280;62539;51.190;6.808;2022-08-04T02:08:24;100939.69;;;27.04;51.28
62617;BME280;62539;51.190;6.808;2022-08-04T02:11:17;100938.72;;;27.05;51.41
62617;BME280;62539;51.190;6.808;2022-08-04T02:13:54;100936.06;;;27.05;51.59
62617;BME280;62539;51.190;6.808;2022-08-04T02:16:45;100936.06;;;27.05;51.42
62617;BME280;62539;51.190;6.808;2022-08-04T02:22:08;100933.41;;;27.05;51.26
62617;BME280;62539;51.190;6.808;2022-08-04T02:25:09;100924.66;;;27.03;51.64
62617;BME280;62539;51.190;6.808;2022-08-04T02:28:11;100929.97;;;27.03;51.33
62617;BME280;62539;51.190;6.808;2022-08-04T02:30:53;100922.75;;;27.05;51.60
62617;BME280;62539;51.190;6.808;2022-08-04T02:33:39;100927.19;;;27.04;51.68
62617;BME280;62539;51.190;6.808;2022-08-04T02:36:34;100924.53;;;27.04;51.47
62617;BME280;62539;51.190;6.808;2022-08-04T02:39:01;100928.06;;;27.05;51.36
62617;BME280;62539;51.190;6.808;2022-08-04T02:41:29;100914.75;;;27.05;51.56
62617;BME280;62539;51.190;6.808;2022-08-04T02:44:02;100918.25;;;27.05;51.61
62617;BME280;62539;51.190;6.808;2022-08-04T02:46:31;100921.03;;;27.04;51.41
62617;BME280;62539;51.190;6.808;2022-08-04T02:49:01;100923.59;;;27.05;51.39
62617;BME280;62539;51.190;6.808;2022-08-04T02:51:31;100918.25;;;27.05;51.62
62617;BME280;62539;51.190;6.808;2022-08-04T02:54:00;100915.59;;;27.05;51.56
62617;BME280;62539;51.190;6.808;2022-08-04T02:56:30;100912.09;;;27.05;51.50
62617;BME280;62539;51.190;6.808;2022-08-04T02:59:05;100908.47;;;27.06;51.55
62617;BME280;62539;51.190;6.808;2022-08-04T03:01:33;100907.59;;;27.05;51.26
62617;BME280;62539;51.190;6.808;2022-08-04T03:25:20;100899.19;;;26.98;51.31
62617;BME280;62539;51.190;6.808;2022-08-04T03:33:54;100898.25;;;26.99;51.44
62617;BME280;62539;51.190;6.808;2022-08-04T03:43:28;100900.16;;;26.97;51.45
62617;BME280;62539;51.190;6.808;2022-08-04T03:49:26;100902.63;;;27.00;51.93
62617;BME280;62539;51.190;6.808;2022-08-04T03:52:36;100896.53;;;26.98;51.59
62617;BME280;62539;51.190;6.808;2022-08-04T04:16:47;100902.81;;;26.97;51.51
62617;BME280;62539;51.190;6.808;2022-08-04T04:31:19;100906.44;;;26.96;51.62
62617;BME280;62539;51.190;6.808;2022-08-04T04:34:20;100905.50;;;26.97;51.57
62617;BME280;62539;51.190;6.808;2022-08-04T04:41:09;100907.28;;;26.97;51.46
62617;BME280;62539;51.190;6.808;2022-08-04T04:43:41;100910.91;;;26.96;51.62
62617;BME280;62539;51.190;6.808;2022-08-04T04:46:35;100921.47;;;26.97;51.32
62617;BME280;62539;51.190;6.808;2022-08-04T04:49:16;100916.13;;;26.97;51.46
62617;BME280;62539;51.190;6.808;2022-08-04T04:52:02;100920.50;;;26.98;51.78
62617;BME280;62539;51.190;6.808;2022-08-04T04:55:02;100919.75;;;26.96;51.72
62617;BME280;62539;51.190;6.808;2022-08-04T04:57:35;100916.88;;;26.99;51.51
62617;BME280;62539;51.190;6.808;2022-08-04T05:00:07;100911.66;;;26.98;51.64
62617;BME280;62539;51.190;6.808;2022-08-04T05:06:06;100920.59;;;26.97;51.64
62617;BME280;62539;51.190;6.808;2022-08-04T05:09:17;100922.41;;;26.96;51.79
62617;BME280;62539;51.190;6.808;2022-08-04T05:12:16;100926.78;;;26.97;51.66
62617;BME280;62539;51.190;6.808;2022-08-04T05:14:47;100926.66;;;26.99;51.65
62617;BME280;62539;51.190;6.808;2022-08-04T05:17:27;100932.09;;;26.97;51.76
62617;BME280;62539;51.190;6.808;2022-08-04T05:20:15;100927.75;;;26.96;51.57
62617;BME280;62539;51.190;6.808;2022-08-04T05:23:16;100922.28;;;26.98;51.65
62617;BME280;62539;51.190;6.808;2022-08-04T05:25:48;100928.50;;;26.98;51.67
62617;BME280;62539;51.190;6.808;2022-08-04T05:28:21;100928.50;;;26.98;51.50
62617;BME280;62539;51.190;6.808;2022-08-04T05:31:05;100932.09;;;26.97;51.46
62617;BME280;62539;51.190;6.808;2022-08-04T05:33:55;100931.16;;;26.98;51.60
62617;BME280;62539;51.190;6.808;2022-08-04T05:36:32;100923.16;;;26.98;51.67
62617;BME280;62539;51.190;6.808;2022-08-04T05:39:02;100931.16;;;26.98;51.75
62617;BME280;62539;51.190;6.808;2022-08-04T05:41:32;100933.81;;;26.98;51.54
62617;BME280;62539;51.190;6.808;2022-08-04T05:44:01;100940.84;;;26.99;51.66
62617;BME280;62539;51.190;6.808;2022-08-04T05:46:28;100931.16;;;26.98;51.65
62617;BME280;62539;51.190;6.808;2022-08-04T05:48:55;100931.03;;;27.00;51.50
62617;BME280;62539;51.190;6.808;2022-08-04T05:51:21;100930.81;;;27.03;51.53
62617;BME280;62539;51.190;6.808;2022-08-04T05:53:48;100940.31;;;27.07;51.34
62617;BME280;62539;51.190;6.808;2022-08-04T05:56:16;100928.59;;;27.10;51.38
62617;BME280;62539;51.190;6.808;2022-08-04T05:58:43;100931.16;;;27.11;51.47
62617;BME280;62539;51.190;6.808;2022-08-04T06:01:11;100924.25;;;27.09;51.74
62617;BME280;62539;51.190;6.808;2022-08-04T06:03:42;100925.06;;;27.09;51.77
62617;BME280;62539;51.190;6.808;2022-08-04T06:06:10;100930.41;;;27.09;51.99
62617;BME280;62539;51.190;6.808;2022-08-04T06:08:37;100929.56;;;27.09;51.93
62617;BME280;62539;51.190;6.808;2022-08-04T06:11:07;100922.41;;;27.09;52.05
62617;BME280;62539;51.190;6.808;2022-08-04T06:13:42;100922.53;;;27.08;52.14
62617;BME280;62539;51.190;6.808;2022-08-04T06:16:13;100917.22;;;27.08;51.82
62617;BME280;62539;51.190;6.808;2022-08-04T06:18:42;100917.28;;;27.06;52.04
62617;BME280;62539;51.190;6.808;2022-08-04T06:21:11;100920.81;;;27.07;51.92
62617;BME280;62539;51.190;6.808;2022-08-04T06:23:38;100913.78;;;27.06;51.93
62617;BME280;62539;51.190;6.808;2022-08-04T06:26:09;100917.41;;;27.05;51.80
62617;BME280;62539;51.190;6.808;2022-08-04T06:28:42;100922.75;;;27.05;52.00
62617;BME280;62539;51.190;6.808;2022-08-04T06:31:09;100913.06;;;27.04;51.94
62617;BME280;62539;51.190;6.808;2022-08-04T06:33:35;100926.38;;;27.04;52.04
62617;BME280;62539;51.190;6.808;2022-08-04T06:36:04;100921.88;;;27.04;51.89
62617;BME280;62539;51.190;6.808;2022-08-04T06:38:31;100920.09;;;27.05;51.86
62617;BME280;62539;51.190;6.808;2022-08-04T06:41:00;100919.34;;;27.03;51.99
62617;BME280;62539;51.190;6.808;2022-08-04T06:43:28;100916.66;;;27.03;51.74
62617;BME280;62539;51.190;6.808;2022-08-04T06:45:56;100921.03;;;27.04;51.84
62617;BME280;62539;51.190;6.808;2022-08-04T06:48:27;100914.84;;;27.03;51.68
62617;BME280;62539;51.190;6.808;2022-08-04T06:50:54;100917.63;;;27.02;51.79
62617;BME280;62539;51.190;6.808;2022-08-04T06:53:21;100912.19;;;27.03;51.76
62617;BME280;62539;51.190;6.808;2022-08-04T06:55:48;100909.53;;;27.03;51.50
62617;BME280;62539;51.190;6.808;2022-08-04T06:58:16;100902.41;;;27.04;51.85
62617;BME280;62539;51.190;6.808;2022-08-04T07:00:46;100908.69;;;27.03;51.38
62617;BME280;62539;51.190;6.808;2022-08-04T07:03:13;100909.53;;;27.03;51.53
62617;BME280;62539;51.190;6.808;2022-08-04T07:05:40;100919.34;;;27.03;51.51
62617;BME280;62539;51.190;6.808;2022-08-04T07:08:09;100916.56;;;27.04;51.57
62617;BME280;62539;51.190;6.808;2022-08-04T07:10:36;100921.03;;;27.04;51.50
62617;BME280;62539;51.190;6.808;2022-08-04T07:13:01;100918.25;;;27.05;51.59
62617;BME280;62539;51.190;6.808;2022-08-04T07:15:28;100912.94;;;27.05;51.86
62617;BME280;62539;51.190;6.808;2022-08-04T07:17:54;100920.09;;;27.05;51.40
62617;BME280;62539;51.190;6.808;2022-08-04T07:20:24;100920.09;;;27.05;51.76
62617;BME280;62539;51.190;6.808;2022-08-04T07:22:51;100917.41;;;27.05;51.91
62617;BME280;62539;51.190;6.808;2022-08-04T07:25:18;100917.41;;;27.05;51.59
62617;BME280;62539;51.190;6.808;2022-08-04T07:27:44;100912.09;;;27.05;51.49
62617;BME280;62539;51.190;6.808;2022-08-04T07:30:10;100911.13;;;27.06;51.56
62617;BME280;62539;51.190;6.808;2022-08-04T07:32:37;100917.28;;;27.06;51.51
62617;BME280;62539;51.190;6.808;2022-08-04T07:35:06;100909.31;;;27.06;51.65
62617;BME280;62539;51.190;6.808;2022-08-04T07:37:32;100917.22;;;27.08;51.64
62617;BME280;62539;51.190;6.808;2022-08-04T07:39:58;100917.22;;;27.08;51.55
62617;BME280;62539;51.190;6.808;2022-08-04T07:42:25;100917.09;;;27.09;51.53
62617;BME280;62539;51.190;6.808;2022-08-04T07:44:51;100916.13;;;27.10;51.93
62617;BME280;62539;51.190;6.808;2022-08-04T07:47:17;100922.31;;;27.11;51.52
62617;BME280;62539;51.190;6.808;2022-08-04T07:49:42;100912.50;;;27.11;51.83
62617;BME280;62539;51.190;6.808;2022-08-04T07:52:08;100912.50;;;27.11;51.75
62617;BME280;62539;51.190;6.808;2022-08-04T07:54:35;100913.38;;;27.12;51.59
62617;BME280;62539;51.190;6.808;2022-08-04T07:57:02;100918.69;;;27.12;51.68
62617;BME280;62539;51.190;6.808;2022-08-04T07:59:28;100919.53;;;27.12;51.57
62617;BME280;62539;51.190;6.808;2022-08-04T08:01:54;100915.06;;;27.13;51.85
62617;BME280;62539;51.190;6.808;2022-08-04T08:04:23;100925.72;;;27.13;51.86
62617;BME280;62539;51.190;6.808;2022-08-04T08:06:49;100924.78;;;27.14;51.76
62617;BME280;62539;51.190;6.808;2022-08-04T08:09:17;100916.78;;;27.14;51.54
62617;BME280;62539;51.190;6.808;2022-08-04T08:11:48;100914.13;;;27.14;51.62
62617;BME280;62539;51.190;6.808;2022-08-04T08:14:16;100915.91;;;27.13;51.84
62617;BME280;62539;51.190;6.808;2022-08-04T08:16:43;100918.50;;;27.15;52.10
62617;BME280;62539;51.190;6.808;2022-08-04T08:19:09;100914.13;;;27.14;51.92
62617;BME280;62539;51.190;6.808;2022-08-04T08:21:36;100918.50;;;27.15;51.83
62617;BME280;62539;51.190;6.808;2022-08-04T08:24:03;100919.31;;;27.15;51.75
62617;BME280;62539;51.190;6.808;2022-08-04T08:26:29;100900.59;;;27.17;51.89
62617;BME280;62539;51.190;6.808;2022-08-04T08:28:55;100900.59;;;27.17;51.75
62617;BME280;62539;51.190;6.808;2022-08-04T08:31:21;100902.28;;;27.18;51.65
62617;BME280;62539;51.190;6.808;2022-08-04T08:33:48;100891.66;;;27.18;51.79
62617;BME280;62539;51.190;6.808;2022-08-04T08:36:25;100896.09;;;27.18;51.72
62617;BME280;62539;51.190;6.808;2022-08-04T08:44:54;100888.97;;;27.18;51.92
62617;BME280;62539;51.190;6.808;2022-08-04T08:50:29;100893.34;;;27.19;52.48
62617;BME280;62539;51.190;6.808;2022-08-04T08:53:26;100903.03;;;27.20;52.35
62617;BME280;62539;51.190;6.808;2022-08-04T08:59:15;100901.34;;;27.19;52.43
62617;BME280;62539;51.190;6.808;2022-08-04T09:02:26;100899.72;;;27.17;52.15
62617;BME280;62539;51.190;6.808;2022-08-04T09:08:33;100896.09;;;27.18;52.48
62617;BME280;62539;51.190;6.808;2022-08-04T09:11:27;100896.09;;;27.18;52.43
62617;BME280;62539;51.190;6.808;2022-08-04T09:14:09;100897.72;;;27.20;52.19
62617;BME280;62539;51.190;6.808;2022-08-04T09:16:52;100902.09;;;27.21;52.17
62617;BME280;62539;51.190;6.808;2022-08-04T09:19:41;100898.47;;;27.22;52.26
62617;BME280;62539;51.190;6.808;2022-08-04T09:22:21;100898.47;;;27.22;52.20
62617;BME280;62539;51.190;6.808;2022-08-04T09:25:01;100912.53;;;27.24;52.15
62617;BME280;62539;51.190;6.808;2022-08-04T09:27:45;100905.50;;;27.23;52.39
62617;BME280;62539;51.190;6.808;2022-08-04T09:30:19;100899.22;;;27.24;52.24
62617;BME280;62539;51.190;6.808;2022-08-04T09:33:03;100908.91;;;27.25;52.66
62617;BME280;62539;51.190;6.808;2022-08-04T09:36:00;100908.03;;;27.25;52.32
62617;BME280;62539;51.190;6.808;2022-08-04T09:38:50;100903.56;;;27.25;52.37
62617;BME280;62539;51.190;6.808;2022-08-04T09:44:59;100897.38;;;27.25;52.16
62617;BME280;62539;51.190;6.808;2022-08-04T09:47:46;100898.25;;;27.25;52.17
62617;BME280;62539;51.190;6.808;2022-08-04T09:53:09;100907.81;;;27.28;52.50
62617;BME280;62539;51.190;6.808;2022-08-04T09:58:27;100913.06;;;27.29;52.04
62617;BME280;62539;51.190;6.808;2022-08-04T10:01:09;100919.34;;;27.28;52.41
62617;BME280;62539;51.190;6.808;2022-08-04T10:03:44;100913.91;;;27.30;52.11
62617;BME280;62539;51.190;6.808;2022-08-04T10:09:33;100923.59;;;27.31;52.14
62617;BME280;62539;51.190;6.808;2022-08-04T10:12:27;100927.22;;;27.30;52.12
62617;BME280;62539;51.190;6.808;2022-08-04T10:15:07;100916.47;;;27.32;51.93
62617;BME280;62539;51.190;6.808;2022-08-04T10:20:41;100924.53;;;27.30;51.99
62617;BME280;62539;51.190;6.808;2022-08-04T10:23:37;100927.13;;;27.32;52.27
62617;BME280;62539;51.190;6.808;2022-08-04T10:26:26;100931.50;;;27.33;51.95
62617;BME280;62539;51.190;6.808;2022-08-04T10:29:04;100938.50;;;27.34;51.99
62617;BME280;62539;51.190;6.808;2022-08-04T10:31:54;100939.47;;;27.33;51.78
62617;BME280;62539;51.190;6.808;2022-08-04T10:34:27;100938.50;;;27.34;51.77
62617;BME280;62539;51.190;6.808;2022-08-04T10:37:18;100926.16;;;27.33;51.91
62617;BME280;62539;51.190;6.808;2022-08-04T10:40:07;100933.19;;;27.34;52.10
62617;BME280;62539;51.190;6.808;2022-08-04T10:43:04;100941.94;;;27.36;52.04
62617;BME280;62539;51.190;6.808;2022-08-04T10:45:45;100938.31;;;27.37;51.72
62617;BME280;62539;51.190;6.808;2022-08-04T10:48:19;100941.72;;;27.39;51.88
62617;BME280;62539;51.190;6.808;2022-08-04T10:51:01;100939.13;;;27.37;52.16
62617;BME280;62539;51.190;6.808;2022-08-04T10:53:36;100947.88;;;27.39;51.85
62617;BME280;62539;51.190;6.808;2022-08-04T10:56:26;100955.88;;;27.39;51.74
62617;BME280;62539;51.190;6.808;2022-08-04T10:59:01;100950.44;;;27.41;51.55
62617;BME280;62539;51.190;6.808;2022-08-04T11:01:43;100941.50;;;27.42;51.57
62617;BME280;62539;51.190;6.808;2022-08-04T11:04:36;100950.25;;;27.44;51.65
62617;BME280;62539;51.190;6.808;2022-08-04T11:07:05;100945.66;;;27.46;51.60
62617;BME280;62539;51.190;6.808;2022-08-04T11:09:33;100945.47;;;27.49;51.58
62617;BME280;62539;51.190;6.808;2022-08-04T11:12:06;100943.63;;;27.50;52.31
62617;BME280;62539;51.190;6.808;2022-08-04T11:17:19;100943.63;;;27.50;52.36
62617;BME280;62539;51.190;6.808;2022-08-04T11:19:59;100953.47;;;27.49;53.11
62617;BME280;62539;51.190;6.808;2022-08-04T11:22:42;100962.28;;;27.50;52.94
62617;BME280;62539;51.190;6.808;2022-08-04T11:25:19;100961.34;;;27.51;53.51
62617;BME280;62539;51.190;6.808;2022-08-04T11:28:07;100956.00;;;27.51;53.43
62617;BME280;62539;51.190;6.808;2022-08-04T11:30:38;100959.41;;;27.53;53.01
62617;BME280;62539;51.190;6.808;2022-08-04T11:33:19;100954.00;;;27.54;52.79
62617;BME280;62539;51.190;6.808;2022-08-04T11:39:17;100959.31;;;27.54;52.50
62617;BME280;62539;51.190;6.808;2022-08-04T11:42:26;100970.06;;;27.53;52.78
62617;BME280;62539;51.190;6.808;2022-08-04T11:44:59;100976.88;;;27.57;52.85
62617;BME280;62539;51.190;6.808;2022-08-04T11:50:13;100974.13;;;27.58;52.56
62617;BME280;62539;51.190;6.808;2022-08-04T11:52:46;100978.38;;;27.61;52.19
62617;BME280;62539;51.190;6.808;2022-08-04T11:55:16;100984.56;;;27.62;52.19
62617;BME280;62539;51.190;6.808;2022-08-04T11:57:47;100990.75;;;27.62;52.17
62617;BME280;62539;51.190;6.808;2022-08-04T12:00:15;100995.25;;;27.62;51.94
62617;BME280;62539;51.190;6.808;2022-08-04T12:14:53;100983.72;;;27.61;51.92
62617;BME280;62539;51.190;6.808;2022-08-04T12:17:35;100972.97;;;27.63;51.84
62617;BME280;62539;51.190;6.808;2022-08-04T12:20:06;100971.03;;;27.65;51.95
62617;BME280;62539;51.190;6.808;2022-08-04T12:22:36;100969.34;;;27.64;51.89
62617;BME280;62539;51.190;6.808;2022-08-04T12:25:11;100976.38;;;27.65;51.67
62617;BME280;62539;51.190;6.808;2022-08-04T12:27:50;100987.03;;;27.65;51.88
62617;BME280;62539;51.190;6.808;2022-08-04T12:30:19;100981.56;;;27.66;51.69
62617;BME280;62539;51.190;6.808;2022-08-04T12:32:51;100984.38;;;27.65;51.82
62617;BME280;62539;51.190;6.808;2022-08-04T12:35:35;100987.03;;;27.65;51.60
62617;BME280;62539;51.190;6.808;2022-08-04T12:38:14;100980.75;;;27.66;51.70
62617;BME280;62539;51.190;6.808;2022-08-04T12:40:46;100989.69;;;27.65;52.02
62617;BME280;62539;51.190;6.808;2022-08-04T12:43:18;100989.69;;;27.65;51.95
62617;BME280;62539;51.190;6.808;2022-08-04T12:45:52;100986.91;;;27.66;52.24
62617;BME280;62539;51.190;6.808;2022-08-04T12:48:23;100987.78;;;27.67;52.21
62617;BME280;62539;51.190;6.808;2022-08-04T12:50:55;100985.09;;;27.67;52.25
62617;BME280;62539;51.190;6.808;2022-08-04T12:53:29;100984.16;;;27.68;52.49
62617;BME280;62539;51.190;6.808;2022-08-04T12:55:58;100992.13;;;27.68;52.26
62617;BME280;62539;51.190;6.808;2022-08-04T12:58:27;100980.53;;;27.69;52.21
62617;BME280;62539;51.190;6.808;2022-08-04T13:00:59;100984.97;;;27.68;52.28
62617;BME280;62539;51.190;6.808;2022-08-04T13:03:37;100986.69;;;27.69;52.40
62617;BME280;62539;51.190;6.808;2022-08-04T13:06:07;100984.88;;;27.70;52.27
62617;BME280;62539;51.190;6.808;2022-08-04T13:08:37;100987.56;;;27.70;52.27
62617;BME280;62539;51.190;6.808;2022-08-04T13:11:06;100971.56;;;27.70;52.21
62617;BME280;62539;51.190;6.808;2022-08-04T13:13:35;100982.22;;;27.70;52.32
62617;BME280;62539;51.190;6.808;2022-08-04T13:16:04;100978.69;;;27.69;52.34
62617;BME280;62539;51.190;6.808;2022-08-04T13:18:35;100982.22;;;27.70;52.40
62617;BME280;62539;51.190;6.808;2022-08-04T13:21:15;100979.66;;;27.68;52.37
62617;BME280;62539;51.190;6.808;2022-08-04T13:23:45;100983.19;;;27.69;52.13
62617;BME280;62539;51.190;6.808;2022-08-04T13:26:17;100972.53;;;27.69;52.27
62617;BME280;62539;51.190;6.808;2022-08-04T13:28:45;100975.19;;;27.69;52.47
62617;BME280;62539;51.190;6.808;2022-08-04T13:31:15;100969.88;;;27.69;52.35
62617;BME280;62539;51.190;6.808;2022-08-04T13:33:46;100969.88;;;27.69;52.30
62617;BME280;62539;51.190;6.808;2022-08-04T13:36:16;100974.22;;;27.70;52.28
62617;BME280;62539;51.190;6.808;2022-08-04T13:38:54;100969.00;;;27.68;52.12
62617;BME280;62539;51.190;6.808;2022-08-04T13:41:23;100969.88;;;27.69;52.27
62617;BME280;62539;51.190;6.808;2022-08-04T13:43:58;100973.50;;;27.68;52.20
62617;BME280;62539;51.190;6.808;2022-08-04T13:46:36;100969.94;;;27.67;52.09
62617;BME280;62539;51.190;6.808;2022-08-04T13:49:09;100971.66;;;27.68;52.17
62617;BME280;62539;51.190;6.808;2022-08-04T13:51:39;100969.88;;;27.69;52.18
62617;BME280;62539;51.190;6.808;2022-08-04T13:54:06;100963.66;;;27.68;52.10
62617;BME280;62539;51.190;6.808;2022-08-04T13:56:43;100967.19;;;27.69;52.02
62617;BME280;62539;51.190;6.808;2022-08-04T13:59:13;100970.69;;;27.69;51.87
62617;BME280;62539;51.190;6.808;2022-08-04T14:01:43;100964.53;;;27.69;52.02
62617;BME280;62539;51.190;6.808;2022-08-04T14:04:19;100970.81;;;27.68;51.86
62617;BME280;62539;51.190;6.808;2022-08-04T14:07:05;100971.78;;;27.67;52.15
62617;BME280;62539;51.190;6.808;2022-08-04T14:09:39;100963.66;;;27.68;51.94
62617;BME280;62539;51.190;6.808;2022-08-04T14:12:13;100966.22;;;27.70;51.95
62617;BME280;62539;51.190;6.808;2022-08-04T14:14:49;100975.19;;;27.69;51.86
62617;BME280;62539;51.190;6.808;2022-08-04T14:17:22;100975.19;;;27.69;52.13
62617;BME280;62539;51.190;6.808;2022-08-04T14:19:54;100985.72;;;27.70;51.94
62617;BME280;62539;51.190;6.808;2022-08-04T14:32:59;100962.81;;;27.68;51.78
62617;BME280;62539;51.190;6.808;2022-08-04T14:35:30;100961.00;;;27.68;51.98
62617;BME280;62539;51.190;6.808;2022-08-04T14:37:59;100974.31;;;27.68;51.94
62617;BME280;62539;51.190;6.808;2022-08-04T14:40:31;100968.16;;;27.68;51.87
62617;BME280;62539;51.190;6.808;2022-08-04T14:42:59;100971.78;;;27.67;51.75
62617;BME280;62539;51.190;6.808;2022-08-04T14:45:31;100968.16;;;27.68;51.80
62617;BME280;62539;51.190;6.808;2022-08-04T14:47:59;100968.16;;;27.68;51.81
62617;BME280;62539;51.190;6.808;2022-08-04T14:50:40;100965.50;;;27.68;51.85
62617;BME280;62539;51.190;6.808;2022-08-04T14:53:11;100970.81;;;27.68;51.90
62617;BME280;62539;51.190;6.808;2022-08-04T14:55:39;100969.13;;;27.67;51.96
62617;BME280;62539;51.190;6.808;2022-08-04T14:58:16;100974.44;;;27.67;51.94
62617;BME280;62539;51.190;6.808;2022-08-04T15:00:44;100973.50;;;27.68;51.90
62617;BME280;62539;51.190;6.808;2022-08-04T15:03:10;100974.31;;;27.68;51.78
62617;BME280;62539;51.190;6.808;2022-08-04T15:05:38;100973.50;;;27.68;51.92
62617;BME280;62539;51.190;6.808;2022-08-04T15:08:05;100977.09;;;27.67;51.82
62617;BME280;62539;51.190;6.808;2022-08-04T15:10:31;100978.81;;;27.68;51.92
62617;BME280;62539;51.190;6.808;2022-08-04T15:12:57;100984.16;;;27.68;52.04
62617;BME280;62539;51.190;6.808;2022-08-04T15:15:23;100983.19;;;27.69;51.89
62617;BME280;62539;51.190;6.808;2022-08-04T15:17:52;100985.84;;;27.69;51.93
62617;BME280;62539;51.190;6.808;2022-08-04T15:20:19;100978.81;;;27.68;52.04
62617;BME280;62539;51.190;6.808;2022-08-04T15:22:46;100975.19;;;27.69;51.70
62617;BME280;62539;51.190;6.808;2022-08-04T15:25:11;100983.19;;;27.69;51.88
62617;BME280;62539;51.190;6.808;2022-08-04T15:27:38;100975.19;;;27.69;51.89
62617;BME280;62539;51.190;6.808;2022-08-04T15:30:07;100975.19;;;27.69;51.94
62617;BME280;62539;51.190;6.808;2022-08-04T15:32:42;100979.66;;;27.68;51.86
62617;BME280;62539;51.190;6.808;2022-08-04T15:35:24;100971.78;;;27.67;51.92
62617;BME280;62539;51.190;6.808;2022-08-04T15:40:39;100973.50;;;27.68;51.99
62617;BME280;62539;51.190;6.808;2022-08-04T15:49:18;100973.50;;;27.68;52.04
62617;BME280;62539;51.190;6.808;2022-08-04T15:52:05;100981.47;;;27.68;51.99
62617;BME280;62539;51.190;6.808;2022-08-04T15:54:32;100976.16;;;27.68;51.96
62617;BME280;62539;51.190;6.808;2022-08-04T15:57:00;100974.31;;;27.68;52.00
62617;BME280;62539;51.190;6.808;2022-08-04T16:00:04;100975.41;;;27.66;52.09
62617;BME280;62539;51.190;6.808;2022-08-04T16:08:07;100987.78;;;27.67;51.94
62617;BME280;62539;51.190;6.808;2022-08-04T16:10:39;100985.84;;;27.69;51.94
62617;BME280;62539;51.190;6.808;2022-08-04T16:13:16;100984.16;;;27.68;51.96
62617;BME280;62539;51.190;6.808;2022-08-04T16:15:52;100964.53;;;27.69;52.11
62617;BME280;62539;51.190;6.808;2022-08-04T16:20:50;100942.34;;;27.68;52.09
62617;BME280;62539;51.190;6.808;2022-08-04T16:37:20;100965.28;;;27.71;51.98
62617;BME280;62539;51.190;6.808;2022-08-04T16:39:47;100964.53;;;27.69;52.16
62617;BME280;62539;51.190;6.808;2022-08-04T16:42:33;100957.50;;;27.68;52.15
62617;BME280;62539;51.190;6.808;2022-08-04T16:45:09;100960.03;;;27.69;52.13
62617;BME280;62539;51.190;6.808;2022-08-04T16:50:13;100981.25;;;27.71;52.11
62617;BME280;62539;51.190;6.808;2022-08-04T16:52:41;100975.94;;;27.71;52.12
62617;BME280;62539;51.190;6.808;2022-08-04T16:55:09;100977.63;;;27.72;51.96
62617;BME280;62539;51.190;6.808;2022-08-04T16:57:36;100976.69;;;27.73;52.03
62617;BME280;62539;51.190;6.808;2022-08-04T17:00:03;100981.06;;;27.74;52.18
62617;BME280;62539;51.190;6.808;2022-08-04T17:02:29;100984.56;;;27.75;52.09